createdAt,value
2019-04-05T19:24:31.676Z,19.83
2019-04-05T19:29:36.550Z,21.03
2019-04-05T19:50:00.814Z,19.43
2019-04-05T19:55:05.955Z,20.20
2019-04-05T20:00:10.824Z,20.70
2019-04-05T20:05:17.093Z,20.23
2019-04-05T20:10:21.890Z,20.33
2019-04-05T20:15:26.730Z,19.27
2019-04-05T20:20:31.521Z,21.10
2019-04-05T20:25:36.486Z,21.43
2019-04-05T20:30:41.277Z,20.93
2019-04-05T20:35:46.141Z,13.63
2019-04-05T20:40:50.969Z,21.87
2019-04-05T20:45:56.838Z,21.90
2019-04-05T20:51:01.634Z,21.80
2019-04-05T20:56:06.472Z,23.13
2019-04-05T21:01:11.237Z,24.70
2019-04-05T21:06:17.248Z,22.90
2019-04-05T21:11:22.157Z,23.10
2019-04-05T21:16:26.882Z,25.03
2019-04-05T21:21:31.646Z,21.80
2019-04-05T21:26:36.429Z,25.17
2019-04-05T21:31:41.199Z,23.87
2019-04-05T21:36:45.972Z,25.73
2019-04-05T21:41:50.789Z,24.50
2019-04-05T21:46:55.553Z,25.50
2019-04-05T21:52:00.386Z,26.83
2019-04-05T21:57:05.240Z,26.17
2019-04-05T22:02:10.282Z,27.27
2019-04-05T22:07:15.170Z,25.60
2019-04-05T22:12:20.094Z,24.87
2019-04-05T22:17:24.893Z,26.93
2019-04-05T22:22:29.667Z,28.67
2019-04-05T22:27:34.433Z,25.30
2019-04-05T22:32:39.208Z,26.33
2019-04-05T22:37:43.974Z,27.70
2019-04-05T22:42:48.741Z,27.10
2019-04-05T22:47:53.470Z,28.20
2019-04-05T22:52:58.261Z,27.40
2019-04-05T22:58:03.074Z,25.43
2019-04-05T23:03:07.845Z,20.27
2019-04-05T23:08:12.634Z,26.03
2019-04-05T23:13:17.429Z,27.77
2019-04-05T23:18:22.222Z,26.13
2019-04-05T23:23:28.059Z,28.30
2019-04-05T23:28:32.837Z,26.40
2019-04-05T23:33:37.630Z,23.57
2019-04-05T23:38:42.422Z,22.90
2019-04-05T23:43:47.186Z,22.40
2019-04-05T23:48:51.909Z,22.93
2019-04-05T23:53:56.630Z,23.37
2019-04-05T23:59:01.422Z,21.57
